createdAt,value
2023-05-06T00:00:43.937Z,751.00
2023-05-06T00:01:43.916Z,750.00
2023-05-06T00:02:43.981Z,751.00
2023-05-06T00:03:44.282Z,754.00
2023-05-06T00:04:43.940Z,754.00
2023-05-06T00:05:44.015Z,756.00
2023-05-06T00:06:43.891Z,755.00
2023-05-06T00:07:43.867Z,755.00
2023-05-06T00:08:43.856Z,757.00
2023-05-06T00:09:43.834Z,756.00
2023-05-06T00:10:43.828Z,755.00
2023-05-06T00:11:43.966Z,754.00
2023-05-06T00:12:43.853Z,755.00
2023-05-06T00:13:43.794Z,756.00
2023-05-06T00:14:43.785Z,757.00
2023-05-06T00:15:43.776Z,756.00
2023-05-06T00:16:43.841Z,756.00
2023-05-06T00:17:43.940Z,756.00
2023-05-06T00:18:43.765Z,758.00
2023-05-06T00:19:43.732Z,756.00
2023-05-06T00:20:43.720Z,755.00
2023-05-06T00:21:43.710Z,756.00
2023-05-06T00:22:43.698Z,754.00
2023-05-06T00:23:43.840Z,755.00
2023-05-06T00:24:43.693Z,755.00
2023-05-06T00:25:43.664Z,755.00
2023-05-06T00:26:43.664Z,755.00
2023-05-06T00:27:43.637Z,756.00
2023-05-06T00:28:43.638Z,752.00
2023-05-06T00:29:43.783Z,750.00
2023-05-06T00:30:43.620Z,750.00
2023-05-06T00:31:43.634Z,750.00
2023-05-06T00:32:43.624Z,749.00
2023-05-06T00:33:43.578Z,752.00
2023-05-06T00:34:43.573Z,755.00
2023-05-06T00:35:43.601Z,755.00
2023-05-06T00:36:43.562Z,756.00
2023-05-06T00:37:43.538Z,756.00
2023-05-06T00:38:43.532Z,753.00
2023-05-06T00:39:43.512Z,754.00
2023-05-06T00:40:43.506Z,755.00
2023-05-06T00:41:43.645Z,755.00
2023-05-06T00:42:43.494Z,755.00
2023-05-06T00:43:43.478Z,756.00
2023-05-06T00:44:43.489Z,755.00
2023-05-06T00:45:43.514Z,756.00
2023-05-06T00:46:43.444Z,755.00
2023-05-06T00:47:43.595Z,753.00
2023-05-06T00:48:43.421Z,754.00
2023-05-06T00:49:43.413Z,754.00
2023-05-06T00:50:43.401Z,754.00
2023-05-06T00:51:43.393Z,754.00
2023-05-06T00:52:43.386Z,753.00
2023-05-06T00:53:49.500Z,753.00
2023-05-06T00:54:43.357Z,753.00
2023-05-06T00:55:43.367Z,753.00
2023-05-06T00:56:43.345Z,752.00
2023-05-06T00:57:43.339Z,753.00
2023-05-06T00:58:43.334Z,751.00
2023-05-06T00:59:43.465Z,751.00
2023-05-06T01:00:43.291Z,751.00
2023-05-06T01:01:43.324Z,752.00
2023-05-06T01:02:47.514Z,754.00
2023-05-06T01:03:43.361Z,756.00
2023-05-06T01:04:43.280Z,755.00
2023-05-06T01:05:43.278Z,755.00
2023-05-06T01:06:43.249Z,756.00
2023-05-06T01:07:43.226Z,755.00
2023-05-06T01:08:43.208Z,755.00
2023-05-06T01:09:43.218Z,752.00
2023-05-06T01:10:43.190Z,752.00
2023-05-06T01:11:43.346Z,751.00
2023-05-06T01:12:43.187Z,752.00
2023-05-06T01:13:43.169Z,753.00
2023-05-06T01:14:43.153Z,754.00
2023-05-06T01:15:43.148Z,756.00
2023-05-06T01:16:43.154Z,757.00
2023-05-06T01:17:43.274Z,758.00
2023-05-06T01:18:43.104Z,758.00
2023-05-06T01:19:43.104Z,756.00
2023-05-06T01:20:43.087Z,754.00
2023-05-06T01:21:43.078Z,753.00
2023-05-06T01:22:43.074Z,753.00
2023-05-06T01:23:43.106Z,754.00
2023-05-06T01:24:43.044Z,753.00
2023-05-06T01:25:43.041Z,753.00
2023-05-06T01:26:43.023Z,751.00
2023-05-06T01:27:43.021Z,751.00
2023-05-06T01:28:43.008Z,752.00
2023-05-06T01:29:43.153Z,750.00
2023-05-06T01:30:43.004Z,752.00
2023-05-06T01:31:43.003Z,751.00
2023-05-06T01:32:42.987Z,750.00
2023-05-06T01:33:42.957Z,749.00
2023-05-06T01:34:42.946Z,750.00
2023-05-06T01:35:43.092Z,751.00
2023-05-06T01:36:42.916Z,749.00
2023-05-06T01:37:42.910Z,748.00
2023-05-06T01:38:42.901Z,750.00
2023-05-06T01:39:42.886Z,750.00
2023-05-06T01:40:42.872Z,750.00
2023-05-06T01:41:42.996Z,750.00
2023-05-06T01:42:42.855Z,749.00
2023-05-06T01:43:42.863Z,748.00
2023-05-06T01:44:42.832Z,750.00
2023-05-06T01:45:42.821Z,750.00
2023-05-06T01:46:42.831Z,750.00
2023-05-06T01:47:42.971Z,749.00
2023-05-06T01:48:42.783Z,750.00
2023-05-06T01:49:42.782Z,750.00
2023-05-06T01:50:42.775Z,750.00
2023-05-06T01:51:42.764Z,749.00
2023-05-06T01:52:42.744Z,747.00
2023-05-06T01:53:49.359Z,746.00
2023-05-06T01:54:42.742Z,745.00
2023-05-06T01:55:42.718Z,745.00
2023-05-06T01:56:42.708Z,745.00
2023-05-06T01:57:42.705Z,747.00
2023-05-06T01:58:42.693Z,748.00
2023-05-06T01:59:42.718Z,747.00
2023-05-06T02:00:42.667Z,747.00
2023-05-06T02:01:42.665Z,746.00
2023-05-06T02:02:42.760Z,746.00
2023-05-06T02:03:42.737Z,745.00
2023-05-06T02:04:42.623Z,742.00
2023-05-06T02:05:42.656Z,741.00
2023-05-06T02:06:42.597Z,739.00
2023-05-06T02:07:42.594Z,739.00
2023-05-06T02:08:42.578Z,742.00
2023-05-06T02:09:42.588Z,739.00
2023-05-06T02:10:42.595Z,738.00
2023-05-06T02:11:42.693Z,739.00
2023-05-06T02:12:42.614Z,737.00
2023-05-06T02:13:42.633Z,735.00
2023-05-06T02:14:42.581Z,736.00
2023-05-06T02:15:42.715Z,735.00
2023-05-06T02:16:42.490Z,737.00
2023-05-06T02:17:42.665Z,737.00
2023-05-06T02:18:42.488Z,737.00
2023-05-06T02:19:42.482Z,735.00
2023-05-06T02:20:42.448Z,734.00
2023-05-06T02:21:42.450Z,734.00
2023-05-06T02:22:42.431Z,733.00
2023-05-06T02:23:42.448Z,734.00
2023-05-06T02:24:42.402Z,734.00
2023-05-06T02:25:42.413Z,734.00
2023-05-06T02:26:42.413Z,734.00
2023-05-06T02:27:42.394Z,734.00
2023-05-06T02:28:42.369Z,735.00
2023-05-06T02:29:42.519Z,738.00
2023-05-06T02:30:42.336Z,738.00
2023-05-06T02:31:42.372Z,737.00
2023-05-06T02:32:42.346Z,739.00
2023-05-06T02:33:42.322Z,739.00
2023-05-06T02:34:42.312Z,740.00
2023-05-06T02:35:42.440Z,739.00
2023-05-06T02:36:42.277Z,740.00
2023-05-06T02:37:42.269Z,740.00
2023-05-06T02:38:42.264Z,741.00
2023-05-06T02:39:42.248Z,741.00
2023-05-06T02:40:42.235Z,742.00
2023-05-06T02:41:42.362Z,740.00
2023-05-06T02:42:42.273Z,738.00
2023-05-06T02:43:42.207Z,738.00
2023-05-06T02:44:42.202Z,737.00
2023-05-06T02:45:42.200Z,737.00
2023-05-06T02:46:42.167Z,735.00
2023-05-06T02:47:42.252Z,734.00
2023-05-06T02:48:42.164Z,732.00
2023-05-06T02:49:42.144Z,732.00
2023-05-06T02:50:42.124Z,735.00
2023-05-06T02:51:42.145Z,737.00
2023-05-06T02:52:42.104Z,737.00
2023-05-06T02:53:42.121Z,736.00
2023-05-06T02:54:42.094Z,735.00
2023-05-06T02:55:42.088Z,734.00
2023-05-06T02:56:42.067Z,733.00
2023-05-06T02:57:42.058Z,730.00
2023-05-06T02:58:42.045Z,727.00
2023-05-06T02:59:42.067Z,728.00
2023-05-06T03:00:42.050Z,731.00
2023-05-06T03:01:42.058Z,732.00
2023-05-06T03:02:42.041Z,733.00
2023-05-06T03:03:42.019Z,735.00
2023-05-06T03:04:42.122Z,736.00
2023-05-06T03:05:42.103Z,737.00
2023-05-06T03:06:41.957Z,736.00
2023-05-06T03:07:41.894Z,736.00
2023-05-06T03:08:41.938Z,734.00
2023-05-06T03:09:41.926Z,732.00
2023-05-06T03:10:41.916Z,731.00
2023-05-06T03:11:41.942Z,734.00
2023-05-06T03:12:41.938Z,734.00
2023-05-06T03:13:41.885Z,732.00
2023-05-06T03:14:41.881Z,732.00
2023-05-06T03:15:41.860Z,732.00
2023-05-06T03:16:41.923Z,730.00
2023-05-06T03:17:42.026Z,728.00
2023-05-06T03:18:41.843Z,732.00
2023-05-06T03:19:41.825Z,732.00
2023-05-06T03:20:41.813Z,731.00
2023-05-06T03:21:41.909Z,730.00
2023-05-06T03:22:41.782Z,729.00
2023-05-06T03:23:41.888Z,731.00
2023-05-06T03:24:41.806Z,732.00
2023-05-06T03:25:41.713Z,735.00
2023-05-06T03:26:41.688Z,737.00
2023-05-06T03:27:41.693Z,736.00
2023-05-06T03:28:41.720Z,734.00
2023-05-06T03:29:41.846Z,735.00
2023-05-06T03:30:41.709Z,733.00
2023-05-06T03:31:41.728Z,730.00
2023-05-06T03:32:41.714Z,729.00
2023-05-06T03:33:41.674Z,728.00
2023-05-06T03:34:41.652Z,727.00
2023-05-06T03:35:41.698Z,728.00
2023-05-06T03:36:41.631Z,730.00
2023-05-06T03:37:41.590Z,730.00
2023-05-06T03:38:41.561Z,730.00
2023-05-06T03:39:41.557Z,728.00
2023-05-06T03:40:41.641Z,729.00
2023-05-06T03:41:41.703Z,731.00
2023-05-06T03:42:41.512Z,730.00
2023-05-06T03:43:41.516Z,732.00
2023-05-06T03:44:41.493Z,734.00
2023-05-06T03:45:41.496Z,733.00
2023-05-06T03:46:41.542Z,733.00
2023-05-06T03:47:41.659Z,734.00
2023-05-06T03:48:41.513Z,735.00
2023-05-06T03:49:41.500Z,737.00
2023-05-06T03:50:41.501Z,737.00
2023-05-06T03:51:41.485Z,736.00
2023-05-06T03:52:41.474Z,732.00
2023-05-06T03:53:47.996Z,731.00
2023-05-06T03:54:41.403Z,732.00
2023-05-06T03:55:41.392Z,730.00
2023-05-06T03:56:41.378Z,727.00
2023-05-06T03:57:41.376Z,727.00
2023-05-06T03:58:41.350Z,726.00
2023-05-06T03:59:41.491Z,725.00
2023-05-06T04:00:41.338Z,724.00
2023-05-06T04:01:41.339Z,726.00
2023-05-06T04:02:41.370Z,729.00
2023-05-06T04:03:41.382Z,731.00
2023-05-06T04:04:41.282Z,730.00
2023-05-06T04:05:41.402Z,730.00
2023-05-06T04:06:41.279Z,729.00
2023-05-06T04:07:41.252Z,728.00
2023-05-06T04:08:41.237Z,728.00
2023-05-06T04:09:41.238Z,728.00
2023-05-06T04:10:41.222Z,727.00
2023-05-06T04:11:41.341Z,728.00
2023-05-06T04:12:41.215Z,726.00
2023-05-06T04:13:41.208Z,726.00
2023-05-06T04:14:41.184Z,725.00
2023-05-06T04:15:41.164Z,724.00
2023-05-06T04:16:41.206Z,723.00
2023-05-06T04:17:41.311Z,727.00
2023-05-06T04:18:41.147Z,726.00
2023-05-06T04:19:41.124Z,725.00
2023-05-06T04:20:41.123Z,726.00
2023-05-06T04:21:41.131Z,725.00
2023-05-06T04:22:41.091Z,727.00
2023-05-06T04:23:41.119Z,726.00
2023-05-06T04:24:41.066Z,726.00
2023-05-06T04:25:41.067Z,724.00
2023-05-06T04:26:41.067Z,723.00
2023-05-06T04:27:41.053Z,722.00
2023-05-06T04:28:41.016Z,721.00
2023-05-06T04:29:41.154Z,721.00
2023-05-06T04:30:41.009Z,723.00
2023-05-06T04:31:41.013Z,723.00
2023-05-06T04:32:41.031Z,722.00
2023-05-06T04:33:40.982Z,722.00
2023-05-06T04:34:40.992Z,721.00
2023-05-06T04:35:40.993Z,722.00
2023-05-06T04:36:40.992Z,725.00
2023-05-06T04:37:40.936Z,724.00
2023-05-06T04:38:40.924Z,724.00
2023-05-06T04:39:40.921Z,725.00
2023-05-06T04:40:40.901Z,725.00
2023-05-06T04:41:41.052Z,726.00
2023-05-06T04:42:40.883Z,726.00
2023-05-06T04:43:40.876Z,726.00
2023-05-06T04:44:41.010Z,726.00
2023-05-06T04:45:40.885Z,727.00
2023-05-06T04:46:40.850Z,727.00
2023-05-06T04:47:40.924Z,726.00
2023-05-06T04:48:40.825Z,726.00
2023-05-06T04:49:40.808Z,726.00
2023-05-06T04:50:40.800Z,728.00
2023-05-06T04:51:40.783Z,727.00
2023-05-06T04:52:40.798Z,728.00
2023-05-06T04:54:51.764Z,710.00
2023-05-06T04:55:52.593Z,734.00
2023-05-06T04:56:52.579Z,732.00
2023-05-06T04:57:52.577Z,731.00
2023-05-06T04:58:52.563Z,727.00
2023-05-06T04:59:52.708Z,726.00
2023-05-06T05:00:52.542Z,725.00
2023-05-06T05:01:52.556Z,727.00
2023-05-06T05:02:52.583Z,730.00
2023-05-06T05:03:52.518Z,730.00
2023-05-06T05:04:52.496Z,729.00
2023-05-06T05:05:52.624Z,728.00
2023-05-06T05:06:52.482Z,731.00
2023-05-06T05:07:52.476Z,731.00
2023-05-06T05:08:53.813Z,730.00
2023-05-06T05:09:52.450Z,731.00
2023-05-06T05:10:52.446Z,732.00
2023-05-06T05:11:52.748Z,734.00
2023-05-06T05:12:52.468Z,735.00
2023-05-06T05:13:53.406Z,734.00
2023-05-06T05:14:52.397Z,732.00
2023-05-06T05:15:52.390Z,732.00
2023-05-06T05:16:52.419Z,732.00
2023-05-06T05:17:52.565Z,734.00
2023-05-06T05:18:52.352Z,734.00
2023-05-06T05:19:52.353Z,737.00
2023-05-06T05:20:52.333Z,735.00
2023-05-06T05:21:52.329Z,733.00
2023-05-06T05:22:52.316Z,733.00
2023-05-06T05:23:52.445Z,732.00
2023-05-06T05:24:52.302Z,733.00
2023-05-06T05:25:52.284Z,735.00
2023-05-06T05:26:52.286Z,735.00
2023-05-06T05:27:52.285Z,737.00
2023-05-06T05:28:52.252Z,737.00
2023-05-06T05:29:52.429Z,738.00
2023-05-06T05:30:52.272Z,736.00
2023-05-06T05:31:52.220Z,737.00
2023-05-06T05:32:52.360Z,738.00
2023-05-06T05:33:52.272Z,739.00
2023-05-06T05:34:52.183Z,737.00
2023-05-06T05:35:52.354Z,738.00
2023-05-06T05:36:52.163Z,739.00
2023-05-06T05:37:52.166Z,738.00
2023-05-06T05:38:52.151Z,739.00
2023-05-06T05:39:52.144Z,738.00
2023-05-06T05:40:52.137Z,737.00
2023-05-06T05:41:52.260Z,738.00
2023-05-06T05:42:52.123Z,736.00
2023-05-06T05:43:52.097Z,736.00
2023-05-06T05:44:52.079Z,732.00
2023-05-06T05:45:52.079Z,731.00
2023-05-06T05:46:52.120Z,732.00
2023-05-06T05:47:52.251Z,732.00
2023-05-06T05:48:52.092Z,735.00
2023-05-06T05:49:52.049Z,733.00
2023-05-06T05:50:52.040Z,732.00
2023-05-06T05:51:52.015Z,731.00
2023-05-06T05:52:52.011Z,735.00
2023-05-06T05:53:58.163Z,732.00
2023-05-06T05:54:51.985Z,731.00
2023-05-06T05:55:51.985Z,729.00
2023-05-06T05:56:51.959Z,729.00
2023-05-06T05:57:51.951Z,729.00
2023-05-06T05:58:51.939Z,728.00
2023-05-06T05:59:51.967Z,727.00
2023-05-06T06:00:51.923Z,727.00
2023-05-06T06:01:51.921Z,726.00
2023-05-06T06:02:51.937Z,726.00
2023-05-06T06:03:52.256Z,729.00
2023-05-06T06:04:51.955Z,730.00
2023-05-06T06:05:51.909Z,727.00
2023-05-06T06:06:51.860Z,727.00
2023-05-06T06:07:51.873Z,727.00
2023-05-06T06:08:51.828Z,725.00
2023-05-06T06:09:51.847Z,725.00
2023-05-06T06:10:51.805Z,726.00
2023-05-06T06:11:51.942Z,727.00
2023-05-06T06:12:51.826Z,732.00
2023-05-06T06:13:51.812Z,730.00
2023-05-06T06:14:51.776Z,729.00
2023-05-06T06:15:51.784Z,730.00
2023-05-06T06:16:51.777Z,729.00
2023-05-06T06:17:51.958Z,729.00
2023-05-06T06:18:51.727Z,728.00
2023-05-06T06:19:51.724Z,731.00
2023-05-06T06:20:53.278Z,730.00
2023-05-06T06:21:51.708Z,727.00
2023-05-06T06:22:51.684Z,729.00
2023-05-06T06:23:51.837Z,727.00
2023-05-06T06:24:51.665Z,725.00
2023-05-06T06:25:51.665Z,725.00
2023-05-06T06:26:51.664Z,726.00
2023-05-06T06:27:51.641Z,727.00
2023-05-06T06:28:51.645Z,729.00
2023-05-06T06:29:51.791Z,728.00
2023-05-06T06:30:51.607Z,726.00
2023-05-06T06:31:51.627Z,726.00
2023-05-06T06:32:51.675Z,725.00
2023-05-06T06:33:51.577Z,724.00
2023-05-06T06:34:51.561Z,724.00
2023-05-06T06:35:51.605Z,723.00
2023-05-06T06:36:51.544Z,724.00
2023-05-06T06:37:51.529Z,725.00
2023-05-06T06:38:51.523Z,724.00
2023-05-06T06:39:51.520Z,724.00
2023-05-06T06:40:51.498Z,722.00
2023-05-06T06:41:51.655Z,725.00
2023-05-06T06:42:51.482Z,726.00
2023-05-06T06:43:51.470Z,727.00
2023-05-06T06:44:51.469Z,725.00
2023-05-06T06:45:51.563Z,729.00
2023-05-06T06:46:51.433Z,729.00
2023-05-06T06:47:51.617Z,729.00
2023-05-06T06:48:51.423Z,730.00
2023-05-06T06:49:51.405Z,730.00
2023-05-06T06:50:51.397Z,731.00
2023-05-06T06:51:51.387Z,730.00
2023-05-06T06:52:51.381Z,729.00
2023-05-06T06:53:51.525Z,731.00
2023-05-06T06:54:51.351Z,728.00
2023-05-06T06:55:51.395Z,729.00
2023-05-06T06:56:51.330Z,726.00
2023-05-06T06:57:51.328Z,726.00
2023-05-06T06:58:53.122Z,728.00
2023-05-06T06:59:51.464Z,727.00
2023-05-06T07:00:51.320Z,722.00
2023-05-06T07:01:51.292Z,722.00
2023-05-06T07:02:51.284Z,722.00
2023-05-06T07:03:51.265Z,721.00
2023-05-06T07:04:51.253Z,720.00
2023-05-06T07:05:51.295Z,722.00
2023-05-06T07:06:51.225Z,723.00
2023-05-06T07:07:51.244Z,724.00
2023-05-06T07:08:51.224Z,725.00
2023-05-06T07:09:51.205Z,724.00
2023-05-06T07:10:51.187Z,724.00
2023-05-06T07:11:51.354Z,723.00
2023-05-06T07:12:51.190Z,723.00
2023-05-06T07:13:51.163Z,723.00
2023-05-06T07:14:51.143Z,722.00
2023-05-06T07:15:51.147Z,724.00
2023-05-06T07:16:51.654Z,722.00
2023-05-06T07:17:51.330Z,722.00
2023-05-06T07:18:51.100Z,721.00
2023-05-06T07:19:51.113Z,722.00
2023-05-06T07:20:51.084Z,722.00
2023-05-06T07:21:51.081Z,725.00
2023-05-06T07:22:51.071Z,728.00
2023-05-06T07:23:51.206Z,727.00
2023-05-06T07:24:51.048Z,725.00
2023-05-06T07:25:51.045Z,728.00
2023-05-06T07:26:51.030Z,725.00
2023-05-06T07:27:51.018Z,723.00
2023-05-06T07:28:51.032Z,724.00
2023-05-06T07:29:51.162Z,723.00
2023-05-06T07:30:51.004Z,724.00
2023-05-06T07:31:50.962Z,724.00
2023-05-06T07:32:50.976Z,723.00
2023-05-06T07:33:50.947Z,722.00
2023-05-06T07:34:50.935Z,722.00
2023-05-06T07:35:50.991Z,723.00
2023-05-06T07:36:50.916Z,724.00
2023-05-06T07:37:50.901Z,722.00
2023-05-06T07:38:50.903Z,721.00
2023-05-06T07:39:50.882Z,719.00
2023-05-06T07:40:50.889Z,718.00
2023-05-06T07:41:50.907Z,719.00
2023-05-06T07:42:50.862Z,719.00
2023-05-06T07:43:50.860Z,720.00
2023-05-06T07:44:50.834Z,720.00
2023-05-06T07:45:50.901Z,722.00
2023-05-06T07:46:50.897Z,722.00
2023-05-06T07:47:50.979Z,721.00
2023-05-06T07:48:50.793Z,722.00
2023-05-06T07:49:50.781Z,721.00
2023-05-06T07:50:50.774Z,722.00
2023-05-06T07:51:50.758Z,723.00
2023-05-06T07:52:50.761Z,722.00
2023-05-06T07:55:01.182Z,702.00
2023-05-06T07:56:02.285Z,717.00
2023-05-06T07:57:02.016Z,720.00
2023-05-06T07:58:02.034Z,718.00
2023-05-06T07:59:02.013Z,717.00
2023-05-06T08:00:02.159Z,716.00
2023-05-06T08:01:01.974Z,716.00
2023-05-06T08:02:01.996Z,717.00
2023-05-06T08:03:02.065Z,719.00
2023-05-06T08:04:02.052Z,718.00
2023-05-06T08:05:01.937Z,717.00
2023-05-06T08:06:02.123Z,718.00
2023-05-06T08:07:01.919Z,720.00
2023-05-06T08:08:01.919Z,720.00
2023-05-06T08:09:01.923Z,720.00
2023-05-06T08:10:01.885Z,720.00
2023-05-06T08:11:01.862Z,721.00
2023-05-06T08:12:02.081Z,721.00
2023-05-06T08:13:01.909Z,724.00
2023-05-06T08:14:01.851Z,725.00
2023-05-06T08:15:01.840Z,726.00
2023-05-06T08:16:01.846Z,728.00
2023-05-06T08:17:01.809Z,729.00
2023-05-06T08:18:13.929Z,729.00
2023-05-06T08:19:01.793Z,729.00
2023-05-06T08:20:01.797Z,729.00
2023-05-06T08:21:01.765Z,730.00
2023-05-06T08:22:01.771Z,732.00
2023-05-06T08:23:01.748Z,734.00
2023-05-06T08:24:01.775Z,732.00
2023-05-06T08:25:01.753Z,733.00
2023-05-06T08:26:01.717Z,731.00
2023-05-06T08:27:01.715Z,729.00
2023-05-06T08:28:01.722Z,728.00
2023-05-06T08:29:01.687Z,727.00
2023-05-06T08:30:01.817Z,726.00
2023-05-06T08:31:01.670Z,723.00
2023-05-06T08:32:01.763Z,722.00
2023-05-06T08:33:01.705Z,722.00
2023-05-06T08:34:01.664Z,720.00
2023-05-06T08:35:01.682Z,721.00
2023-05-06T08:36:01.662Z,722.00
2023-05-06T08:37:01.607Z,722.00
2023-05-06T08:38:01.590Z,724.00
2023-05-06T08:39:01.595Z,726.00
2023-05-06T08:40:01.580Z,728.00
2023-05-06T08:41:01.608Z,727.00
2023-05-06T08:42:01.714Z,723.00
2023-05-06T08:43:01.546Z,722.00
2023-05-06T08:44:01.540Z,718.00
2023-05-06T08:45:01.533Z,716.00
2023-05-06T08:46:01.605Z,716.00
2023-05-06T08:47:01.502Z,719.00
2023-05-06T08:48:01.557Z,717.00
2023-05-06T08:49:01.495Z,719.00
2023-05-06T08:50:01.465Z,721.00
2023-05-06T08:51:01.464Z,723.00
2023-05-06T08:52:01.448Z,724.00
2023-05-06T08:53:01.453Z,725.00
2023-05-06T08:54:01.593Z,729.00
2023-05-06T08:55:01.731Z,730.00
2023-05-06T08:56:01.404Z,726.00
2023-05-06T08:57:01.403Z,724.00
2023-05-06T08:58:01.503Z,723.00
2023-05-06T08:59:01.627Z,725.00
2023-05-06T09:00:01.464Z,726.00
2023-05-06T09:01:01.387Z,724.00
2023-05-06T09:02:01.354Z,726.00
2023-05-06T09:03:01.438Z,724.00
2023-05-06T09:04:01.335Z,722.00
2023-05-06T09:05:01.322Z,721.00
2023-05-06T09:06:01.371Z,722.00
2023-05-06T09:07:01.316Z,722.00
2023-05-06T09:08:01.270Z,725.00
2023-05-06T09:09:01.284Z,727.00
2023-05-06T09:10:01.257Z,726.00
2023-05-06T09:11:01.257Z,728.00
2023-05-06T09:12:01.413Z,727.00
2023-05-06T09:13:01.267Z,728.00
2023-05-06T09:14:01.223Z,728.00
2023-05-06T09:15:01.212Z,727.00
2023-05-06T09:16:01.194Z,726.00
2023-05-06T09:17:01.294Z,725.00
2023-05-06T09:18:01.358Z,723.00
2023-05-06T09:19:01.167Z,722.00
2023-05-06T09:20:01.160Z,724.00
2023-05-06T09:21:01.154Z,726.00
2023-05-06T09:22:01.139Z,724.00
2023-05-06T09:23:01.138Z,725.00
2023-05-06T09:24:07.165Z,722.00
2023-05-06T09:25:01.116Z,721.00
2023-05-06T09:26:01.100Z,719.00
2023-05-06T09:27:01.099Z,720.00
2023-05-06T09:28:01.074Z,721.00
2023-05-06T09:29:01.073Z,720.00
2023-05-06T09:30:01.163Z,721.00
2023-05-06T09:31:01.075Z,719.00
2023-05-06T09:32:01.033Z,722.00
2023-05-06T09:33:01.051Z,725.00
2023-05-06T09:34:01.034Z,725.00
2023-05-06T09:35:01.009Z,726.00
2023-05-06T09:36:01.152Z,724.00
2023-05-06T09:37:00.988Z,723.00
2023-05-06T09:38:00.972Z,723.00
2023-05-06T09:39:00.963Z,724.00
2023-05-06T09:40:00.956Z,726.00
2023-05-06T09:41:01.073Z,726.00
2023-05-06T09:42:01.076Z,728.00
2023-05-06T09:43:00.928Z,730.00
2023-05-06T09:44:00.925Z,729.00
2023-05-06T09:45:02.110Z,728.00
2023-05-06T09:46:00.930Z,728.00
2023-05-06T09:47:00.882Z,728.00
2023-05-06T09:48:01.129Z,729.00
2023-05-06T09:49:00.865Z,729.00
2023-05-06T09:50:00.854Z,729.00
2023-05-06T09:51:01.319Z,730.00
2023-05-06T09:52:00.838Z,729.00
2023-05-06T09:53:00.824Z,729.00
2023-05-06T09:54:00.857Z,730.00
2023-05-06T09:55:00.801Z,732.00
2023-05-06T09:56:00.792Z,733.00
2023-05-06T09:57:01.104Z,734.00
2023-05-06T09:58:00.790Z,735.00
2023-05-06T09:59:00.852Z,735.00
2023-05-06T10:00:00.901Z,733.00
2023-05-06T10:01:00.757Z,732.00
2023-05-06T10:02:00.810Z,733.00
2023-05-06T10:03:00.889Z,734.00
2023-05-06T10:04:00.891Z,733.00
2023-05-06T10:05:00.911Z,732.00
2023-05-06T10:06:00.844Z,732.00
2023-05-06T10:07:00.687Z,733.00
2023-05-06T10:08:00.688Z,733.00
2023-05-06T10:09:00.656Z,734.00
2023-05-06T10:10:00.648Z,734.00
2023-05-06T10:11:00.662Z,734.00
2023-05-06T10:12:00.778Z,735.00
2023-05-06T10:13:00.994Z,736.00
2023-05-06T10:14:00.666Z,737.00
2023-05-06T10:15:00.601Z,738.00
2023-05-06T10:16:00.656Z,739.00
2023-05-06T10:17:00.574Z,738.00
2023-05-06T10:18:00.747Z,740.00
2023-05-06T10:19:00.571Z,742.00
2023-05-06T10:20:00.545Z,740.00
2023-05-06T10:21:00.532Z,739.00
2023-05-06T10:22:00.534Z,738.00
2023-05-06T10:23:00.518Z,738.00
2023-05-06T10:25:11.219Z,739.00
2023-05-06T10:26:11.798Z,737.00
2023-05-06T10:27:11.787Z,742.00
2023-05-06T10:28:14.093Z,745.00
2023-05-06T10:29:11.813Z,748.00
2023-05-06T10:30:11.909Z,747.00
2023-05-06T10:31:11.814Z,747.00
2023-05-06T10:32:11.730Z,748.00
2023-05-06T10:33:11.732Z,749.00
2023-05-06T10:34:11.711Z,751.00
2023-05-06T10:35:11.937Z,750.00
2023-05-06T10:36:11.759Z,749.00
2023-05-06T10:37:11.676Z,746.00
2023-05-06T10:38:11.665Z,745.00
2023-05-06T10:39:11.653Z,747.00
2023-05-06T10:40:11.635Z,750.00
2023-05-06T10:41:11.626Z,751.00
2023-05-06T10:42:11.780Z,751.00
2023-05-06T10:43:11.615Z,752.00
2023-05-06T10:44:11.599Z,753.00
2023-05-06T10:45:11.896Z,753.00
2023-05-06T10:46:11.653Z,753.00
2023-05-06T10:47:11.572Z,750.00
2023-05-06T10:48:11.711Z,750.00
2023-05-06T10:49:11.711Z,751.00
2023-05-06T10:50:11.537Z,752.00
2023-05-06T10:51:11.526Z,752.00
2023-05-06T10:52:11.515Z,753.00
2023-05-06T10:53:11.500Z,756.00
2023-05-06T10:54:11.729Z,758.00
2023-05-06T10:55:11.727Z,760.00
2023-05-06T10:56:11.463Z,760.00
2023-05-06T10:57:11.476Z,759.00
2023-05-06T10:58:11.444Z,757.00
2023-05-06T10:59:11.447Z,757.00
2023-05-06T11:00:11.629Z,756.00
2023-05-06T11:01:11.432Z,755.00
2023-05-06T11:02:11.420Z,756.00
2023-05-06T11:03:11.445Z,757.00
2023-05-06T11:04:11.390Z,759.00
2023-05-06T11:05:11.589Z,760.00
2023-05-06T11:06:11.504Z,762.00
2023-05-06T11:07:11.360Z,762.00
2023-05-06T11:08:11.340Z,764.00
2023-05-06T11:09:11.331Z,764.00
2023-05-06T11:10:11.331Z,765.00
2023-05-06T11:11:11.311Z,767.00
2023-05-06T11:12:11.453Z,767.00
2023-05-06T11:13:11.355Z,767.00
2023-05-06T11:14:11.268Z,766.00
2023-05-06T11:15:11.459Z,765.00
2023-05-06T11:16:11.268Z,766.00
2023-05-06T11:17:11.276Z,764.00
2023-05-06T11:18:11.392Z,765.00
2023-05-06T11:19:11.223Z,765.00
2023-05-06T11:20:11.476Z,765.00
2023-05-06T11:21:11.218Z,764.00
2023-05-06T11:22:11.201Z,762.00
2023-05-06T11:23:11.185Z,762.00
2023-05-06T11:24:17.187Z,763.00
2023-05-06T11:25:11.173Z,762.00
2023-05-06T11:26:11.196Z,762.00
2023-05-06T11:27:11.164Z,763.00
2023-05-06T11:28:11.139Z,765.00
2023-05-06T11:29:11.124Z,763.00
2023-05-06T11:30:11.513Z,763.00
2023-05-06T11:31:11.136Z,763.00
2023-05-06T11:32:11.085Z,764.00
2023-05-06T11:33:11.164Z,763.00
2023-05-06T11:34:11.076Z,763.00
2023-05-06T11:35:11.053Z,761.00
2023-05-06T11:36:11.108Z,761.00
2023-05-06T11:37:11.033Z,762.00
2023-05-06T11:38:11.106Z,761.00
2023-05-06T11:39:11.036Z,761.00
2023-05-06T11:40:11.342Z,760.00
2023-05-06T11:41:11.038Z,759.00
2023-05-06T11:42:11.036Z,758.00
2023-05-06T11:43:10.969Z,758.00
2023-05-06T11:44:11.640Z,760.00
2023-05-06T11:45:10.961Z,762.00
2023-05-06T11:46:10.967Z,762.00
2023-05-06T11:47:10.969Z,761.00
2023-05-06T11:48:10.969Z,761.00
2023-05-06T11:49:10.927Z,761.00
2023-05-06T11:50:11.142Z,760.00
2023-05-06T11:51:10.890Z,761.00
2023-05-06T11:52:10.920Z,761.00
2023-05-06T11:53:10.859Z,760.00
2023-05-06T11:54:10.998Z,760.00
2023-05-06T11:55:10.853Z,760.00
2023-05-06T11:56:10.891Z,761.00
2023-05-06T11:57:10.871Z,763.00
2023-05-06T11:58:10.815Z,765.00
2023-05-06T11:59:10.859Z,765.00
2023-05-06T12:00:11.073Z,767.00
2023-05-06T12:01:10.844Z,767.00
2023-05-06T12:02:10.812Z,765.00
2023-05-06T12:03:10.861Z,764.00
2023-05-06T12:04:10.876Z,764.00
2023-05-06T12:05:10.818Z,764.00
2023-05-06T12:06:10.756Z,763.00
2023-05-06T12:07:10.921Z,763.00
2023-05-06T12:08:23.475Z,763.00
2023-05-06T12:09:10.699Z,766.00
2023-05-06T12:10:10.919Z,768.00
2023-05-06T12:11:10.697Z,770.00
2023-05-06T12:12:10.829Z,768.00
2023-05-06T12:13:10.692Z,768.00
2023-05-06T12:14:10.645Z,767.00
2023-05-06T12:15:10.642Z,767.00
2023-05-06T12:16:10.625Z,769.00
2023-05-06T12:17:10.646Z,769.00
2023-05-06T12:18:10.892Z,768.00
2023-05-06T12:19:10.581Z,770.00
2023-05-06T12:20:10.913Z,770.00
2023-05-06T12:21:10.564Z,769.00
2023-05-06T12:22:10.560Z,767.00
2023-05-06T12:23:10.542Z,766.00
2023-05-06T12:24:16.946Z,768.00
2023-05-06T12:25:10.767Z,770.00
2023-05-06T12:26:10.517Z,770.00
2023-05-06T12:27:10.510Z,769.00
2023-05-06T12:28:10.486Z,769.00
2023-05-06T12:29:10.501Z,768.00
2023-05-06T12:30:10.798Z,768.00
2023-05-06T12:31:10.518Z,770.00
2023-05-06T12:32:10.840Z,768.00